Andrews, North Carolina
Current Conditions -  °F | °C
As of 5:55 PM on Wednesday 17 Dec 2014 (Local Time) from KRHP Reporting Station
Clear Clear  
Wind Chill: 34°   Ceiling: Unl
Heat Index: 39°   Visibility: 10mi
Dew Point: 36°   Wind: 7mph
Humidity: 88%   Direction: 260°W
Pressure: 30.14"   Gusts: NA
Location:  35.2°N, 83.82°W
Report Text: KRHP 172255Z AUTO 26006KT 10SM CLR 04/02 A3014 RMK AO2 T00400022
Loading
Personal Weather Stations






























Interactive Weather Map New forecast layout! Learn more

10-Day Weather Forecast

Advertisements
Track Severe Weather on mobile